Terminal Aerodrome Forecast
Issued by NWS Caribou, ME

Home | Current Version | Previous Version | Text Only | Print | Product List | Glossary On
Versions: 1 2 3 4 5 6 7 8 9 10 11 12 13 14 15 16 17 18 19
000
FTUS41 KCAR 021724
TAFBGR
TAF
KBGR 021724Z 0218/0318 03009KT P6SM -RA OVC015
     FM030200 36006KT P6SM OVC003
     FM031300 35008KT P6SM BKN015
     FM031500 35008KT P6SM BKN040
     FM031600 35008KT P6SM SCT040=

USA.gov is the U.S. government's official web portal to all federal, state and local government web resources and services.